メインページ
METAR-TAF:

METAR-TAF

空港 :

Brookhaven Airport

Shirley, ニューヨーク, アメリカ合衆国

緯度: 40-49-18N, 経度: 072-52-08W, 海抜: 25m

現時点の気象観測

当レポートは37分前の05:56(UTC)に作成
北/北東の風 6kt、最大16ktの突風を伴う
気温 9°C
湿度 71%
気圧 1011 hPa
視程: 16.1km
高度2600ftの曇り

METAR: KHWV 040556Z AUTO 02006G16KT 10SM OVC026 09/04 A2985 RMK AO2 RAE0457 SLP109 P0000 60001 T00890044 10100 20089 51010 TSNO

時間: 02:33 (06:33 UTC)


TAF: 見つかりません

4,000以上の空港の気象観測と天気予報(METAR報とTAF報)

利用可能な観測所は地図上に黄色い丸と赤い丸で示す。

丸の上にカーソルを重ねると観測所名を参照できる。

次にクリックすると気象観測と天気予報を参照できる。

マップの切り替え:黒色「×」印の緑ボタンをクリックして拡大、「-」印の緑ボタンをクリックして縮小、緑色の三角印をクリックして隣りの地図に切り替え


METAR-TAF: